createdAt,value
2023-07-09T00:00:41.341Z,85.28
2023-07-09T00:03:11.820Z,84.70
2023-07-09T00:05:38.402Z,85.38
2023-07-09T00:08:05.207Z,85.27
2023-07-09T00:10:31.990Z,85.35
2023-07-09T00:12:58.485Z,84.66
2023-07-09T00:15:27.366Z,84.68
2023-07-09T00:17:53.914Z,84.02
2023-07-09T00:20:20.595Z,85.85
2023-07-09T00:22:53.572Z,83.76
2023-07-09T00:25:21.443Z,83.62
2023-07-09T00:27:50.570Z,83.36
2023-07-09T00:30:19.635Z,84.10
2023-07-09T00:32:46.198Z,83.46
2023-07-09T00:35:16.379Z,84.91
2023-07-09T00:37:44.652Z,84.95
2023-07-09T00:40:17.283Z,85.58
2023-07-09T00:42:47.174Z,85.31
2023-07-09T00:45:33.590Z,84.15
2023-07-09T00:48:03.272Z,84.48
2023-07-09T00:50:49.089Z,84.46
2023-07-09T00:53:26.789Z,85.54
2023-07-09T00:56:15.718Z,84.94
2023-07-09T00:58:44.130Z,85.22
2023-07-09T01:01:13.089Z,84.11
2023-07-09T01:03:50.802Z,85.12
2023-07-09T01:06:26.067Z,85.77
2023-07-09T01:08:54.465Z,85.73
2023-07-09T01:11:24.944Z,84.97
2023-07-09T01:13:58.853Z,85.32
2023-07-09T01:16:30.047Z,87.40
2023-07-09T01:18:56.696Z,86.49
2023-07-09T01:21:23.209Z,86.29
2023-07-09T01:23:51.183Z,86.16
2023-07-09T01:26:21.244Z,85.60
2023-07-09T01:28:48.419Z,86.97
2023-07-09T01:31:16.420Z,86.72
2023-07-09T01:33:45.262Z,86.57
2023-07-09T01:36:15.231Z,86.99
2023-07-09T01:38:43.353Z,87.25
2023-07-09T01:41:15.269Z,87.13
2023-07-09T01:43:43.647Z,87.62
2023-07-09T01:46:11.424Z,87.37
2023-07-09T01:48:42.082Z,87.99
2023-07-09T01:51:14.847Z,87.46
2023-07-09T01:53:41.921Z,87.26
2023-07-09T01:56:08.687Z,87.50
2023-07-09T01:58:35.898Z,88.06
2023-07-09T02:01:02.803Z,88.26
2023-07-09T02:03:30.112Z,88.13
2023-07-09T02:05:58.866Z,88.17
2023-07-09T02:08:25.360Z,89.01
2023-07-09T02:10:52.287Z,89.23
2023-07-09T02:13:18.870Z,89.36
2023-07-09T02:15:45.630Z,88.96
2023-07-09T02:18:13.611Z,88.75
2023-07-09T02:20:40.392Z,88.65
2023-07-09T02:23:10.083Z,88.61
2023-07-09T02:25:36.691Z,88.44
2023-07-09T02:28:03.235Z,88.88
2023-07-09T02:30:29.864Z,88.58
2023-07-09T02:32:56.436Z,88.84
2023-07-09T02:35:23.315Z,89.23
2023-07-09T02:37:50.399Z,88.97
2023-07-09T02:40:17.377Z,89.09
2023-07-09T02:42:44.026Z,89.17
2023-07-09T02:45:11.358Z,88.83
2023-07-09T02:47:38.132Z,89.10
2023-07-09T02:50:05.332Z,88.73
2023-07-09T02:52:32.011Z,88.62
2023-07-09T02:54:58.598Z,89.11
2023-07-09T02:57:25.330Z,88.93
2023-07-09T02:59:51.833Z,88.78
2023-07-09T03:02:18.489Z,89.94
2023-07-09T03:04:45.099Z,89.99
2023-07-09T03:07:11.654Z,89.94
2023-07-09T03:09:38.151Z,90.61
2023-07-09T03:12:05.200Z,90.16
2023-07-09T03:14:31.749Z,90.03
2023-07-09T03:16:58.351Z,89.80
2023-07-09T03:19:24.966Z,90.54
2023-07-09T03:21:51.505Z,90.81
2023-07-09T03:24:19.827Z,90.90
2023-07-09T03:26:47.186Z,90.89
2023-07-09T03:29:14.061Z,90.46
2023-07-09T03:31:40.865Z,90.67
2023-07-09T03:34:07.728Z,90.40
2023-07-09T03:36:34.275Z,90.11
2023-07-09T03:39:00.776Z,90.25
2023-07-09T03:41:27.391Z,90.31
2023-07-09T03:43:54.642Z,90.75
2023-07-09T03:46:21.757Z,91.00
2023-07-09T03:48:48.442Z,90.48
2023-07-09T03:51:15.070Z,90.07
2023-07-09T03:53:41.550Z,90.28
2023-07-09T03:56:08.341Z,90.58
2023-07-09T03:58:34.874Z,90.55
2023-07-09T04:01:01.436Z,90.59
2023-07-09T04:03:28.030Z,90.50
2023-07-09T04:05:54.609Z,91.10
2023-07-09T04:08:21.354Z,90.09
2023-07-09T04:10:47.928Z,90.11
2023-07-09T04:13:14.452Z,89.96
2023-07-09T04:15:41.037Z,89.58
2023-07-09T04:18:08.671Z,89.46
2023-07-09T04:20:36.159Z,89.89
2023-07-09T04:23:03.659Z,90.45
2023-07-09T04:25:30.672Z,90.24
2023-07-09T04:27:57.266Z,89.67
2023-07-09T04:30:23.768Z,89.42
2023-07-09T04:32:51.016Z,90.30
2023-07-09T04:35:17.784Z,89.43
2023-07-09T04:37:44.501Z,89.67
2023-07-09T04:40:13.021Z,88.30
2023-07-09T04:42:40.733Z,88.94
2023-07-09T04:45:10.339Z,89.80
2023-07-09T04:47:37.217Z,90.62
2023-07-09T04:50:08.689Z,89.95
2023-07-09T04:52:36.120Z,90.05
2023-07-09T04:55:02.985Z,89.50
2023-07-09T04:57:29.982Z,89.27
2023-07-09T04:59:56.572Z,88.87
2023-07-09T05:02:23.831Z,89.40
2023-07-09T05:04:50.363Z,89.14
2023-07-09T05:07:16.943Z,89.53
2023-07-09T05:09:43.441Z,89.53
2023-07-09T05:12:10.344Z,89.11
2023-07-09T05:14:37.001Z,88.77
2023-07-09T05:17:03.752Z,88.03
2023-07-09T05:19:30.460Z,88.05
2023-07-09T05:21:56.978Z,88.04
2023-07-09T05:24:25.041Z,87.28
2023-07-09T05:26:53.285Z,87.50
2023-07-09T05:29:19.759Z,87.83
2023-07-09T05:31:46.416Z,87.78
2023-07-09T05:34:12.961Z,87.75
2023-07-09T05:36:40.182Z,87.39
2023-07-09T05:39:06.674Z,86.65
2023-07-09T05:41:33.216Z,87.37
2023-07-09T05:43:59.767Z,86.54
2023-07-09T05:46:26.510Z,86.01
2023-07-09T05:48:53.154Z,85.13
2023-07-09T05:51:19.783Z,85.22
2023-07-09T05:53:46.297Z,84.43
2023-07-09T05:56:12.878Z,84.12
2023-07-09T05:58:39.615Z,84.63
2023-07-09T06:01:06.121Z,83.04
2023-07-09T06:03:32.833Z,81.73
2023-07-09T06:06:01.705Z,79.80
2023-07-09T06:08:28.797Z,80.30
2023-07-09T06:11:04.211Z,79.19
2023-07-09T06:13:32.380Z,79.27
2023-07-09T06:16:00.504Z,80.12
2023-07-09T06:18:31.297Z,79.59
2023-07-09T06:21:00.916Z,79.06
2023-07-09T06:23:28.319Z,78.90
2023-07-09T06:25:55.180Z,79.34
2023-07-09T06:28:24.919Z,78.17
2023-07-09T06:30:51.836Z,77.07
2023-07-09T06:33:19.883Z,78.41
2023-07-09T06:35:55.422Z,77.88
2023-07-09T06:38:23.249Z,78.86
2023-07-09T06:40:50.076Z,76.59
2023-07-09T06:43:17.130Z,78.61
2023-07-09T06:45:52.122Z,78.33
2023-07-09T06:48:18.858Z,78.23
2023-07-09T06:50:45.804Z,78.70
2023-07-09T06:53:12.675Z,78.35
2023-07-09T06:55:39.274Z,77.77
2023-07-09T06:58:06.108Z,77.96
2023-07-09T07:00:32.762Z,77.97
2023-07-09T07:02:59.752Z,76.37
2023-07-09T07:05:27.714Z,75.90
2023-07-09T07:07:54.410Z,75.13
2023-07-09T07:10:21.266Z,76.53
2023-07-09T07:12:49.446Z,75.62
2023-07-09T07:15:20.088Z,75.27
2023-07-09T07:17:47.070Z,73.90
2023-07-09T07:20:15.249Z,73.25
2023-07-09T07:22:42.344Z,73.68
2023-07-09T07:25:09.563Z,73.37
2023-07-09T07:27:38.025Z,71.85
2023-07-09T07:30:05.441Z,72.98
2023-07-09T07:32:32.205Z,72.99
2023-07-09T07:34:58.690Z,71.94
2023-07-09T07:37:25.212Z,66.88
2023-07-09T07:39:51.765Z,59.41
2023-07-09T07:42:18.393Z,56.22
2023-07-09T07:44:44.917Z,53.21
2023-07-09T07:47:13.012Z,50.62
2023-07-09T07:49:39.798Z,52.50
2023-07-09T07:52:07.180Z,48.52
2023-07-09T07:54:33.767Z,48.31
2023-07-09T07:57:00.333Z,46.11
2023-07-09T07:59:26.994Z,44.73
2023-07-09T08:01:54.317Z,44.66
2023-07-09T08:04:21.058Z,42.87
2023-07-09T08:06:47.820Z,43.07
2023-07-09T08:09:16.861Z,40.94
2023-07-09T08:11:43.378Z,42.61
2023-07-09T08:14:10.834Z,43.37
2023-07-09T08:16:37.715Z,43.81
2023-07-09T08:19:04.515Z,40.23
2023-07-09T08:21:31.085Z,43.80
2023-07-09T08:23:57.818Z,41.72
2023-07-09T08:26:25.364Z,41.75
2023-07-09T08:28:53.024Z,41.52
2023-07-09T08:31:19.984Z,41.74
2023-07-09T08:33:46.599Z,43.58
2023-07-09T08:36:13.230Z,40.83
2023-07-09T08:38:39.943Z,42.69
2023-07-09T08:41:25.519Z,41.57
2023-07-09T08:44:03.303Z,44.65
2023-07-09T08:46:35.849Z,42.73
2023-07-09T08:49:04.390Z,41.84
2023-07-09T08:51:39.785Z,39.60
2023-07-09T08:54:15.446Z,40.05
2023-07-09T08:56:42.526Z,36.66
2023-07-09T08:59:14.873Z,40.09
2023-07-09T09:01:51.321Z,41.02
2023-07-09T09:04:28.984Z,39.20
2023-07-09T09:07:29.422Z,39.10
2023-07-09T09:10:02.480Z,39.45
2023-07-09T09:12:34.305Z,39.72
2023-07-09T09:15:05.701Z,39.15
2023-07-09T09:17:35.445Z,38.05
2023-07-09T09:20:05.381Z,37.81
2023-07-09T09:22:47.793Z,38.38
2023-07-09T09:25:57.882Z,37.68
2023-07-09T09:28:37.057Z,37.67
2023-07-09T09:31:04.146Z,38.28
2023-07-09T09:33:41.517Z,39.47
2023-07-09T09:36:17.017Z,39.71
2023-07-09T09:38:45.052Z,40.62
2023-07-09T09:41:15.274Z,37.08
2023-07-09T09:43:45.360Z,39.14
2023-07-09T09:46:18.897Z,39.79
2023-07-09T09:48:48.417Z,37.66
2023-07-09T09:51:16.105Z,40.74
2023-07-09T09:53:48.811Z,40.52
2023-07-09T09:56:19.536Z,41.86
2023-07-09T09:58:46.284Z,39.86
2023-07-09T10:01:16.859Z,39.80
2023-07-09T10:03:45.508Z,40.41
2023-07-09T10:06:19.740Z,38.98
2023-07-09T10:08:58.373Z,40.25
2023-07-09T10:11:43.399Z,39.28
2023-07-09T10:14:18.682Z,42.39
2023-07-09T10:16:49.421Z,42.41
2023-07-09T10:19:25.898Z,42.59
2023-07-09T10:21:55.571Z,43.82
2023-07-09T10:24:37.672Z,43.25
2023-07-09T10:27:18.960Z,45.93
2023-07-09T10:30:23.104Z,46.67
2023-07-09T10:33:03.496Z,45.12
2023-07-09T10:35:42.811Z,49.37
2023-07-09T10:38:15.300Z,47.19
2023-07-09T10:40:47.045Z,47.33
2023-07-09T10:43:38.143Z,47.76
2023-07-09T10:46:16.512Z,44.54
2023-07-09T10:48:49.236Z,45.56
2023-07-09T10:51:28.114Z,45.75
2023-07-09T10:54:16.820Z,47.59
2023-07-09T10:56:46.127Z,47.64
2023-07-09T10:59:43.049Z,46.19
2023-07-09T11:02:21.658Z,47.55
2023-07-09T11:04:56.042Z,47.96
2023-07-09T11:07:49.465Z,47.11
2023-07-09T11:10:30.531Z,47.04
2023-07-09T11:13:11.336Z,46.47
2023-07-09T11:15:43.049Z,47.75
2023-07-09T11:18:15.024Z,48.88
2023-07-09T11:20:46.715Z,52.98
2023-07-09T11:23:23.240Z,51.17
2023-07-09T11:26:03.744Z,51.58
2023-07-09T11:28:39.360Z,52.53
2023-07-09T11:31:09.089Z,49.85
2023-07-09T11:33:47.163Z,49.91
2023-07-09T11:36:24.146Z,50.91
2023-07-09T11:38:50.691Z,50.46
2023-07-09T11:41:46.413Z,50.12
2023-07-09T11:44:47.727Z,49.70
2023-07-09T11:47:17.168Z,51.70
2023-07-09T11:50:00.983Z,52.10
2023-07-09T11:52:49.396Z,50.01
2023-07-09T11:55:25.604Z,52.66
2023-07-09T11:58:03.498Z,51.34
2023-07-09T12:00:42.663Z,53.04
2023-07-09T12:03:16.495Z,51.92
2023-07-09T12:05:51.374Z,49.17
2023-07-09T12:08:19.207Z,49.12
2023-07-09T12:10:45.998Z,50.65
2023-07-09T12:13:17.435Z,50.67
2023-07-09T12:15:44.156Z,51.32
2023-07-09T12:18:14.314Z,53.79
2023-07-09T12:20:41.983Z,53.03
2023-07-09T12:23:24.428Z,50.40
2023-07-09T12:25:53.088Z,51.76
2023-07-09T12:28:21.455Z,51.12
2023-07-09T12:30:53.164Z,46.95
2023-07-09T12:33:29.779Z,49.67
2023-07-09T12:36:00.141Z,50.13
2023-07-09T12:38:30.566Z,52.66
2023-07-09T12:41:01.879Z,52.52
2023-07-09T12:43:33.195Z,51.03
2023-07-09T12:46:01.021Z,51.95
2023-07-09T12:48:30.770Z,50.14
2023-07-09T12:50:59.657Z,51.70
2023-07-09T12:53:29.863Z,52.09
2023-07-09T12:55:59.214Z,50.42
2023-07-09T12:58:29.450Z,50.74
2023-07-09T13:00:57.690Z,51.45
2023-07-09T13:03:31.436Z,51.15
2023-07-09T13:06:07.012Z,50.42
2023-07-09T13:08:42.369Z,50.01
2023-07-09T13:11:20.052Z,49.31
2023-07-09T13:14:02.727Z,50.00
2023-07-09T13:16:29.497Z,49.73
2023-07-09T13:18:56.148Z,48.89
2023-07-09T13:21:23.929Z,49.34
2023-07-09T13:23:50.647Z,46.61
2023-07-09T13:26:17.395Z,49.08
2023-07-09T13:28:44.280Z,48.90
2023-07-09T13:31:17.977Z,49.89
2023-07-09T13:33:50.892Z,48.90
2023-07-09T13:36:17.523Z,48.96
2023-07-09T13:38:44.140Z,48.35
2023-07-09T13:41:14.187Z,48.13
2023-07-09T13:43:44.097Z,48.50
2023-07-09T13:46:11.408Z,49.84
2023-07-09T13:48:40.341Z,49.09
2023-07-09T13:51:23.235Z,49.15
2023-07-09T13:53:52.731Z,48.28
2023-07-09T13:56:19.448Z,50.49
2023-07-09T13:58:46.004Z,52.12
2023-07-09T14:01:19.684Z,51.84
2023-07-09T14:03:46.526Z,51.15
2023-07-09T14:06:14.696Z,52.17
2023-07-09T14:08:41.134Z,51.32
2023-07-09T14:11:15.411Z,52.84
2023-07-09T14:13:42.479Z,54.67
2023-07-09T14:16:13.411Z,55.98
2023-07-09T14:18:40.220Z,58.39
2023-07-09T14:21:30.133Z,58.68
2023-07-09T14:23:57.879Z,58.66
2023-07-09T14:26:24.398Z,58.72
2023-07-09T14:28:50.944Z,59.95
2023-07-09T14:31:28.429Z,59.80
2023-07-09T14:33:56.713Z,60.76
2023-07-09T14:36:23.316Z,61.71
2023-07-09T14:38:49.821Z,62.94
2023-07-09T14:41:23.236Z,62.82
2023-07-09T14:43:50.142Z,63.98
2023-07-09T14:46:16.792Z,64.36
2023-07-09T14:48:43.526Z,64.31
2023-07-09T14:51:17.421Z,64.90
2023-07-09T14:53:44.763Z,66.35
2023-07-09T14:56:15.233Z,69.03
2023-07-09T14:58:42.004Z,74.24
2023-07-09T15:01:15.917Z,75.44
2023-07-09T15:03:43.085Z,78.36
2023-07-09T15:06:10.342Z,79.78
2023-07-09T15:08:38.306Z,84.93
2023-07-09T15:11:05.438Z,85.22
2023-07-09T15:13:37.811Z,82.91
2023-07-09T15:16:06.055Z,86.51
2023-07-09T15:18:35.359Z,80.86
2023-07-09T15:21:04.592Z,83.71
2023-07-09T15:23:34.597Z,85.57
2023-07-09T15:26:02.382Z,82.96
2023-07-09T15:28:29.000Z,79.42
2023-07-09T15:30:55.561Z,84.69
2023-07-09T15:33:22.350Z,82.71
2023-07-09T15:35:51.764Z,82.80
2023-07-09T15:38:26.145Z,83.01
2023-07-09T15:40:52.803Z,85.60
2023-07-09T15:43:19.639Z,83.93
2023-07-09T15:45:48.117Z,84.61
2023-07-09T15:48:28.592Z,85.70
2023-07-09T15:50:55.182Z,83.52
2023-07-09T15:53:22.393Z,84.60
2023-07-09T15:55:50.395Z,84.03
2023-07-09T15:58:24.889Z,84.31
2023-07-09T16:00:51.662Z,86.73
2023-07-09T16:03:22.633Z,85.67
2023-07-09T16:05:50.824Z,86.49
2023-07-09T16:08:17.528Z,86.85
2023-07-09T16:10:44.271Z,84.85
2023-07-09T16:13:23.123Z,85.39
2023-07-09T16:15:50.538Z,85.80
2023-07-09T16:18:18.489Z,86.69
2023-07-09T16:20:45.354Z,86.88
2023-07-09T16:23:24.135Z,86.41
2023-07-09T16:25:51.426Z,86.97
2023-07-09T16:28:20.594Z,85.70
2023-07-09T16:30:49.442Z,85.54
2023-07-09T16:33:16.332Z,85.44
2023-07-09T16:35:43.726Z,86.20
2023-07-09T16:38:13.576Z,85.45
2023-07-09T16:40:41.010Z,85.74
2023-07-09T16:43:16.772Z,84.74
2023-07-09T16:45:43.818Z,85.48
2023-07-09T16:48:19.189Z,82.96
2023-07-09T16:50:46.433Z,80.48
2023-07-09T16:53:15.335Z,83.25
2023-07-09T16:55:42.748Z,75.64
2023-07-09T16:58:26.412Z,76.71
2023-07-09T17:00:53.065Z,77.88
2023-07-09T17:03:19.991Z,78.96
2023-07-09T17:05:46.591Z,80.43
2023-07-09T17:08:13.149Z,81.28
2023-07-09T17:10:41.331Z,82.41
2023-07-09T17:13:15.252Z,79.09
2023-07-09T17:15:43.582Z,76.26
2023-07-09T17:18:18.108Z,76.13
2023-07-09T17:20:45.572Z,73.31
2023-07-09T17:23:12.311Z,71.49
2023-07-09T17:25:40.753Z,72.26
2023-07-09T17:28:33.689Z,73.59
2023-07-09T17:31:02.000Z,75.92
2023-07-09T17:33:29.222Z,75.76
2023-07-09T17:35:57.038Z,78.21
2023-07-09T17:38:26.685Z,79.15
2023-07-09T17:40:53.893Z,80.76
2023-07-09T17:43:25.352Z,80.90
2023-07-09T17:45:53.769Z,82.99
2023-07-09T17:48:28.110Z,82.91
2023-07-09T17:50:54.816Z,82.84
2023-07-09T17:53:24.476Z,81.52
2023-07-09T17:55:51.368Z,82.32
2023-07-09T17:58:28.489Z,82.70
2023-07-09T18:00:58.130Z,83.03
2023-07-09T18:03:25.917Z,82.04
2023-07-09T18:05:52.626Z,82.56
2023-07-09T18:08:19.317Z,83.14
2023-07-09T18:10:47.932Z,83.37
2023-07-09T18:13:18.140Z,84.00
2023-07-09T18:15:45.781Z,84.74
2023-07-09T18:18:16.018Z,83.09
2023-07-09T18:20:44.126Z,84.22
2023-07-09T18:23:11.080Z,83.30
2023-07-09T18:25:40.469Z,83.98
2023-07-09T18:28:10.652Z,85.43
2023-07-09T18:30:37.798Z,83.93
2023-07-09T18:33:06.995Z,86.10
2023-07-09T18:35:36.996Z,86.63
2023-07-09T18:38:06.614Z,85.63
2023-07-09T18:40:46.121Z,85.72
2023-07-09T18:45:53.092Z,86.40
2023-07-09T18:48:24.976Z,85.59
2023-07-09T18:50:53.716Z,85.30
2023-07-09T18:53:23.389Z,86.07
2023-07-09T18:55:51.194Z,85.21
2023-07-09T18:58:23.469Z,86.30
2023-07-09T19:00:50.554Z,87.21
2023-07-09T19:03:34.065Z,87.06
2023-07-09T19:06:00.762Z,87.21
2023-07-09T19:08:29.665Z,86.14
2023-07-09T19:10:57.082Z,86.94
2023-07-09T19:13:23.650Z,87.20
2023-07-09T19:15:52.215Z,86.78
2023-07-09T19:18:32.788Z,87.33
2023-07-09T19:21:00.737Z,86.56
2023-07-09T19:23:28.441Z,86.09
2023-07-09T19:25:55.644Z,86.98
2023-07-09T19:28:23.132Z,86.95
2023-07-09T19:30:52.725Z,86.64
2023-07-09T19:33:31.615Z,87.46
2023-07-09T19:35:58.187Z,87.49
2023-07-09T19:38:24.964Z,88.07
2023-07-09T19:40:51.651Z,87.40
2023-07-09T19:43:18.214Z,87.24
2023-07-09T19:45:49.298Z,87.54
2023-07-09T19:48:28.659Z,88.08
2023-07-09T19:50:55.890Z,89.06
2023-07-09T19:53:28.446Z,88.97
2023-07-09T19:55:56.849Z,88.54
2023-07-09T19:58:23.947Z,88.10
2023-07-09T20:00:51.830Z,88.25
2023-07-09T20:03:27.919Z,89.58
2023-07-09T20:05:55.381Z,89.38
2023-07-09T20:08:22.707Z,89.50
2023-07-09T20:10:51.656Z,89.77
2023-07-09T20:13:24.170Z,89.28
2023-07-09T20:15:51.002Z,88.57
2023-07-09T20:18:18.903Z,89.49
2023-07-09T20:21:00.370Z,89.06
2023-07-09T20:23:30.099Z,88.91
2023-07-09T20:25:56.981Z,89.75
2023-07-09T20:28:27.138Z,88.97
2023-07-09T20:30:55.091Z,89.00
2023-07-09T20:33:22.487Z,89.19
2023-07-09T20:35:50.936Z,89.17
2023-07-09T20:38:23.675Z,89.37
2023-07-09T20:40:50.964Z,89.23
2023-07-09T20:43:27.532Z,89.89
2023-07-09T20:45:54.489Z,89.27
2023-07-09T20:48:21.734Z,89.32
2023-07-09T20:50:48.392Z,89.48
2023-07-09T20:53:17.480Z,89.88
2023-07-09T20:55:45.740Z,89.26
2023-07-09T20:58:20.294Z,89.78
2023-07-09T21:00:49.641Z,90.56
2023-07-09T21:03:22.284Z,89.60
2023-07-09T21:05:50.788Z,89.19
2023-07-09T21:08:21.680Z,88.76
2023-07-09T21:10:49.650Z,90.16
2023-07-09T21:13:20.495Z,90.23
2023-07-09T21:15:55.906Z,89.86
2023-07-09T21:18:33.314Z,90.23
2023-07-09T21:21:00.007Z,90.90
2023-07-09T21:23:26.534Z,90.79
2023-07-09T21:25:53.392Z,90.31
2023-07-09T21:28:20.510Z,89.57
2023-07-09T21:30:47.213Z,90.20
2023-07-09T21:33:17.469Z,89.89
2023-07-09T21:35:45.610Z,89.77
2023-07-09T21:38:23.764Z,90.10
2023-07-09T21:40:52.099Z,89.68
2023-07-09T21:43:18.793Z,89.87
2023-07-09T21:45:47.483Z,90.00
2023-07-09T21:48:17.283Z,89.70
2023-07-09T21:50:44.081Z,90.06
2023-07-09T21:53:21.755Z,89.41
2023-07-09T21:55:51.876Z,89.66
2023-07-09T21:58:18.379Z,90.77
2023-07-09T22:00:55.217Z,89.89
2023-07-09T22:03:23.409Z,89.84
2023-07-09T22:05:50.003Z,90.07
2023-07-09T22:08:19.693Z,90.44
2023-07-09T22:10:48.231Z,90.45
2023-07-09T22:13:17.426Z,89.83
2023-07-09T22:15:44.124Z,89.78
2023-07-09T22:18:16.832Z,89.92
2023-07-09T22:20:43.921Z,90.49
2023-07-09T22:23:23.318Z,89.90
2023-07-09T22:25:51.512Z,90.02
2023-07-09T22:28:19.193Z,90.43
2023-07-09T22:30:45.983Z,90.36
2023-07-09T22:33:12.742Z,90.77
2023-07-09T22:35:39.546Z,91.24
2023-07-09T22:38:20.639Z,91.20
2023-07-09T22:40:47.437Z,90.96
2023-07-09T22:43:14.089Z,90.55
2023-07-09T22:45:40.707Z,90.54
2023-07-09T22:48:07.523Z,91.05
2023-07-09T22:50:39.200Z,91.93
2023-07-09T22:53:32.120Z,91.28
2023-07-09T22:55:58.732Z,91.01
2023-07-09T22:58:25.353Z,91.76
2023-07-09T23:01:02.040Z,91.22
2023-07-09T23:03:38.380Z,91.44
2023-07-09T23:06:22.956Z,91.58
2023-07-09T23:08:51.269Z,91.70
2023-07-09T23:11:25.542Z,91.43
2023-07-09T23:13:52.582Z,91.72
2023-07-09T23:16:25.140Z,91.86
2023-07-09T23:18:52.338Z,92.17
2023-07-09T23:21:21.940Z,92.13
2023-07-09T23:23:49.922Z,91.37
2023-07-09T23:26:17.460Z,90.81
2023-07-09T23:28:43.991Z,90.55
2023-07-09T23:31:28.372Z,90.90
2023-07-09T23:33:56.219Z,88.52
2023-07-09T23:36:23.405Z,88.20
2023-07-09T23:38:51.028Z,87.82
2023-07-09T23:41:25.316Z,88.30
2023-07-09T23:43:53.023Z,87.13
2023-07-09T23:46:19.640Z,86.09
2023-07-09T23:48:51.546Z,84.58
2023-07-09T23:51:26.990Z,84.07
2023-07-09T23:53:53.507Z,85.77
2023-07-09T23:56:28.406Z,85.13
2023-07-09T23:58:55.859Z,84.71
